Terminal Aerodrome Forecast
Issued by NWS

Home | Current Version | Previous Version | Text Only | Print | Product List | Glossary On
Versions: 1 2 3 4 5 6 7 8 9 10 11 12 13 14
000
FTAK31 PANC 060535
TAFAEN
TAF
PAEN 060535Z 0606/0706 03011KT P6SM VCSH BKN060
     FM060900 02018KT P6SM FEW020 BKN050
     FM070000 02010KT P6SM BKN060=

USA.gov is the U.S. government's official web portal to all federal, state and local government web resources and services.